sensor_id;sensor_type;location;lat;lon;timestamp;P1;durP1;ratioP1;P2;durP2;ratioP2
66669;SDS011;53568;52.164;4.472;2023-09-19T00:01:15;4.69;;;3.39;;
66669;SDS011;53568;52.164;4.472;2023-09-19T00:03:40;3.86;;;2.80;;
66669;SDS011;53568;52.164;4.472;2023-09-19T00:06:07;4.72;;;3.34;;
66669;SDS011;53568;52.164;4.472;2023-09-19T00:08:33;4.00;;;2.87;;
66669;SDS011;53568;52.164;4.472;2023-09-19T00:10:59;4.06;;;2.97;;
66669;SDS011;53568;52.164;4.472;2023-09-19T00:13:31;3.77;;;2.78;;
66669;SDS011;53568;52.164;4.472;2023-09-19T00:15:57;3.95;;;2.94;;
66669;SDS011;53568;52.164;4.472;2023-09-19T00:18:24;3.96;;;2.91;;
66669;SDS011;53568;52.164;4.472;2023-09-19T00:20:57;3.90;;;2.83;;
66669;SDS011;53568;52.164;4.472;2023-09-19T00:23:23;4.16;;;3.02;;
66669;SDS011;53568;52.164;4.472;2023-09-19T00:25:50;4.71;;;3.32;;
66669;SDS011;53568;52.164;4.472;2023-09-19T00:28:16;4.37;;;3.07;;
66669;SDS011;53568;52.164;4.472;2023-09-19T00:30:44;4.83;;;3.33;;
66669;SDS011;53568;52.164;4.472;2023-09-19T00:33:10;4.97;;;3.47;;
66669;SDS011;53568;52.164;4.472;2023-09-19T00:35:53;4.52;;;3.21;;
66669;SDS011;53568;52.164;4.472;2023-09-19T00:38:20;4.45;;;3.15;;
66669;SDS011;53568;52.164;4.472;2023-09-19T00:40:48;4.41;;;3.16;;
66669;SDS011;53568;52.164;4.472;2023-09-19T00:43:16;4.35;;;3.13;;
66669;SDS011;53568;52.164;4.472;2023-09-19T00:45:43;4.58;;;3.31;;
66669;SDS011;53568;52.164;4.472;2023-09-19T00:48:10;4.35;;;3.18;;
66669;SDS011;53568;52.164;4.472;2023-09-19T00:50:37;4.87;;;3.44;;
66669;SDS011;53568;52.164;4.472;2023-09-19T00:53:07;5.18;;;3.58;;
66669;SDS011;53568;52.164;4.472;2023-09-19T00:55:34;5.13;;;3.57;;
66669;SDS011;53568;52.164;4.472;2023-09-19T00:58:02;5.06;;;3.57;;
66669;SDS011;53568;52.164;4.472;2023-09-19T01:00:31;5.61;;;3.94;;
66669;SDS011;53568;52.164;4.472;2023-09-19T01:02:59;5.48;;;3.77;;
66669;SDS011;53568;52.164;4.472;2023-09-19T01:05:28;5.21;;;3.65;;
66669;SDS011;53568;52.164;4.472;2023-09-19T01:07:57;5.50;;;3.85;;
66669;SDS011;53568;52.164;4.472;2023-09-19T01:10:23;5.65;;;3.92;;
66669;SDS011;53568;52.164;4.472;2023-09-19T01:15:40;5.57;;;3.84;;
66669;SDS011;53568;52.164;4.472;2023-09-19T01:26:18;5.77;;;3.92;;
66669;SDS011;53568;52.164;4.472;2023-09-19T01:32:03;5.83;;;3.95;;
66669;SDS011;53568;52.164;4.472;2023-09-19T01:37:29;6.04;;;4.05;;
66669;SDS011;53568;52.164;4.472;2023-09-19T01:47:51;5.93;;;4.06;;
66669;SDS011;53568;52.164;4.472;2023-09-19T01:55:55;6.43;;;4.38;;
66669;SDS011;53568;52.164;4.472;2023-09-19T02:01:11;6.21;;;4.20;;
66669;SDS011;53568;52.164;4.472;2023-09-19T02:03:40;5.70;;;3.85;;
66669;SDS011;53568;52.164;4.472;2023-09-19T02:06:06;6.38;;;4.29;;
66669;SDS011;53568;52.164;4.472;2023-09-19T02:08:36;5.96;;;4.02;;
66669;SDS011;53568;52.164;4.472;2023-09-19T02:11:02;6.43;;;4.32;;
66669;SDS011;53568;52.164;4.472;2023-09-19T02:13:28;5.66;;;3.84;;
66669;SDS011;53568;52.164;4.472;2023-09-19T02:15:56;5.74;;;3.93;;
66669;SDS011;53568;52.164;4.472;2023-09-19T02:18:22;5.56;;;3.80;;
66669;SDS011;53568;52.164;4.472;2023-09-19T02:20:48;5.92;;;4.07;;
66669;SDS011;53568;52.164;4.472;2023-09-19T02:23:13;5.71;;;3.90;;
66669;SDS011;53568;52.164;4.472;2023-09-19T02:25:40;6.14;;;4.19;;
66669;SDS011;53568;52.164;4.472;2023-09-19T02:28:06;6.19;;;4.18;;
66669;SDS011;53568;52.164;4.472;2023-09-19T02:30:32;5.80;;;3.93;;
66669;SDS011;53568;52.164;4.472;2023-09-19T02:32:58;5.48;;;3.75;;
66669;SDS011;53568;52.164;4.472;2023-09-19T02:35:26;6.16;;;4.19;;
66669;SDS011;53568;52.164;4.472;2023-09-19T02:37:53;5.36;;;3.61;;
66669;SDS011;53568;52.164;4.472;2023-09-19T02:40:19;5.64;;;3.82;;
66669;SDS011;53568;52.164;4.472;2023-09-19T02:42:45;5.92;;;3.93;;
66669;SDS011;53568;52.164;4.472;2023-09-19T02:45:15;5.71;;;3.80;;
66669;SDS011;53568;52.164;4.472;2023-09-19T02:47:43;5.58;;;3.72;;
66669;SDS011;53568;52.164;4.472;2023-09-19T02:50:09;4.55;;;3.12;;
66669;SDS011;53568;52.164;4.472;2023-09-19T02:52:41;4.33;;;3.11;;
66669;SDS011;53568;52.164;4.472;2023-09-19T02:55:12;4.37;;;3.12;;
66669;SDS011;53568;52.164;4.472;2023-09-19T02:57:48;4.67;;;3.29;;
66669;SDS011;53568;52.164;4.472;2023-09-19T03:00:16;4.79;;;3.36;;
66669;SDS011;53568;52.164;4.472;2023-09-19T03:02:50;4.57;;;3.21;;
66669;SDS011;53568;52.164;4.472;2023-09-19T03:05:18;4.35;;;3.13;;
66669;SDS011;53568;52.164;4.472;2023-09-19T03:07:44;4.75;;;3.37;;
66669;SDS011;53568;52.164;4.472;2023-09-19T03:10:11;4.75;;;3.29;;
66669;SDS011;53568;52.164;4.472;2023-09-19T03:12:36;4.77;;;3.33;;
66669;SDS011;53568;52.164;4.472;2023-09-19T03:15:04;4.41;;;3.13;;
66669;SDS011;53568;52.164;4.472;2023-09-19T03:17:30;4.04;;;2.89;;
66669;SDS011;53568;52.164;4.472;2023-09-19T03:19:56;4.21;;;2.97;;
66669;SDS011;53568;52.164;4.472;2023-09-19T03:22:22;5.06;;;3.51;;
66669;SDS011;53568;52.164;4.472;2023-09-19T03:24:49;5.38;;;3.72;;
66669;SDS011;53568;52.164;4.472;2023-09-19T03:27:15;4.46;;;3.11;;
66669;SDS011;53568;52.164;4.472;2023-09-19T03:29:41;4.18;;;2.94;;
66669;SDS011;53568;52.164;4.472;2023-09-19T03:32:07;4.04;;;2.82;;
66669;SDS011;53568;52.164;4.472;2023-09-19T03:34:36;4.60;;;3.14;;
66669;SDS011;53568;52.164;4.472;2023-09-19T03:37:05;4.30;;;2.90;;
66669;SDS011;53568;52.164;4.472;2023-09-19T03:39:32;5.14;;;3.42;;
66669;SDS011;53568;52.164;4.472;2023-09-19T03:41:57;5.31;;;3.51;;
66669;SDS011;53568;52.164;4.472;2023-09-19T03:44:23;5.58;;;3.69;;
66669;SDS011;53568;52.164;4.472;2023-09-19T03:46:48;5.11;;;3.45;;
66669;SDS011;53568;52.164;4.472;2023-09-19T03:49:14;4.48;;;3.03;;
66669;SDS011;53568;52.164;4.472;2023-09-19T03:51:39;5.08;;;3.40;;
66669;SDS011;53568;52.164;4.472;2023-09-19T03:54:06;4.63;;;3.10;;
66669;SDS011;53568;52.164;4.472;2023-09-19T03:56:33;4.62;;;3.14;;
66669;SDS011;53568;52.164;4.472;2023-09-19T03:58:58;4.50;;;3.07;;
66669;SDS011;53568;52.164;4.472;2023-09-19T04:01:24;4.60;;;3.13;;
66669;SDS011;53568;52.164;4.472;2023-09-19T04:03:51;4.71;;;3.22;;
66669;SDS011;53568;52.164;4.472;2023-09-19T04:06:18;4.44;;;3.10;;
66669;SDS011;53568;52.164;4.472;2023-09-19T04:08:44;4.05;;;2.86;;
66669;SDS011;53568;52.164;4.472;2023-09-19T04:11:12;4.26;;;3.03;;
66669;SDS011;53568;52.164;4.472;2023-09-19T04:13:38;4.26;;;3.01;;
66669;SDS011;53568;52.164;4.472;2023-09-19T04:16:03;4.40;;;3.06;;
66669;SDS011;53568;52.164;4.472;2023-09-19T04:18:29;4.12;;;2.90;;
66669;SDS011;53568;52.164;4.472;2023-09-19T04:20:58;4.96;;;3.45;;
66669;SDS011;53568;52.164;4.472;2023-09-19T04:23:23;5.07;;;3.49;;
66669;SDS011;53568;52.164;4.472;2023-09-19T04:25:49;4.76;;;3.30;;
66669;SDS011;53568;52.164;4.472;2023-09-19T04:28:15;4.36;;;3.05;;
66669;SDS011;53568;52.164;4.472;2023-09-19T04:30:41;4.74;;;3.23;;
66669;SDS011;53568;52.164;4.472;2023-09-19T04:33:07;5.31;;;3.58;;
66669;SDS011;53568;52.164;4.472;2023-09-19T04:35:33;4.40;;;3.09;;
66669;SDS011;53568;52.164;4.472;2023-09-19T04:37:59;4.26;;;3.04;;
66669;SDS011;53568;52.164;4.472;2023-09-19T04:40:25;4.31;;;3.02;;
66669;SDS011;53568;52.164;4.472;2023-09-19T04:42:55;5.01;;;3.47;;
66669;SDS011;53568;52.164;4.472;2023-09-19T04:45:25;4.56;;;3.13;;
66669;SDS011;53568;52.164;4.472;2023-09-19T04:47:52;4.87;;;3.37;;
66669;SDS011;53568;52.164;4.472;2023-09-19T04:50:18;4.61;;;3.22;;
66669;SDS011;53568;52.164;4.472;2023-09-19T04:52:46;4.88;;;3.42;;
66669;SDS011;53568;52.164;4.472;2023-09-19T04:55:15;4.34;;;3.10;;
66669;SDS011;53568;52.164;4.472;2023-09-19T04:57:45;5.05;;;3.52;;
66669;SDS011;53568;52.164;4.472;2023-09-19T05:00:13;5.23;;;3.56;;
66669;SDS011;53568;52.164;4.472;2023-09-19T05:02:41;4.96;;;3.45;;
66669;SDS011;53568;52.164;4.472;2023-09-19T05:05:07;5.05;;;3.44;;
66669;SDS011;53568;52.164;4.472;2023-09-19T05:07:34;5.14;;;3.57;;
66669;SDS011;53568;52.164;4.472;2023-09-19T05:10:00;5.29;;;3.61;;
66669;SDS011;53568;52.164;4.472;2023-09-19T05:12:28;5.26;;;3.59;;
66669;SDS011;53568;52.164;4.472;2023-09-19T05:14:54;5.59;;;3.83;;
66669;SDS011;53568;52.164;4.472;2023-09-19T05:17:20;5.17;;;3.53;;
66669;SDS011;53568;52.164;4.472;2023-09-19T05:19:46;5.43;;;3.73;;
66669;SDS011;53568;52.164;4.472;2023-09-19T05:22:12;4.88;;;3.42;;
66669;SDS011;53568;52.164;4.472;2023-09-19T05:24:37;5.62;;;3.89;;
66669;SDS011;53568;52.164;4.472;2023-09-19T05:27:04;5.61;;;3.77;;
66669;SDS011;53568;52.164;4.472;2023-09-19T05:29:32;6.35;;;4.28;;
66669;SDS011;53568;52.164;4.472;2023-09-19T05:31:58;6.16;;;4.17;;
66669;SDS011;53568;52.164;4.472;2023-09-19T05:34:24;5.15;;;3.55;;
66669;SDS011;53568;52.164;4.472;2023-09-19T05:36:53;5.43;;;3.76;;
66669;SDS011;53568;52.164;4.472;2023-09-19T05:39:19;5.78;;;4.00;;
66669;SDS011;53568;52.164;4.472;2023-09-19T05:41:45;5.44;;;3.74;;
66669;SDS011;53568;52.164;4.472;2023-09-19T05:44:12;6.27;;;4.27;;
66669;SDS011;53568;52.164;4.472;2023-09-19T05:46:39;5.70;;;3.94;;
66669;SDS011;53568;52.164;4.472;2023-09-19T05:49:05;6.34;;;4.30;;
66669;SDS011;53568;52.164;4.472;2023-09-19T05:51:30;6.79;;;4.59;;
66669;SDS011;53568;52.164;4.472;2023-09-19T05:53:56;6.75;;;4.52;;
66669;SDS011;53568;52.164;4.472;2023-09-19T05:56:22;6.20;;;4.14;;
66669;SDS011;53568;52.164;4.472;2023-09-19T05:58:48;6.08;;;4.13;;
66669;SDS011;53568;52.164;4.472;2023-09-19T06:01:14;5.94;;;4.08;;
66669;SDS011;53568;52.164;4.472;2023-09-19T06:03:40;6.39;;;4.35;;
66669;SDS011;53568;52.164;4.472;2023-09-19T06:06:05;6.74;;;4.53;;
66669;SDS011;53568;52.164;4.472;2023-09-19T06:08:31;7.34;;;4.88;;
66669;SDS011;53568;52.164;4.472;2023-09-19T06:10:58;7.08;;;4.70;;
66669;SDS011;53568;52.164;4.472;2023-09-19T06:13:24;7.32;;;4.86;;
66669;SDS011;53568;52.164;4.472;2023-09-19T06:15:51;6.57;;;4.52;;
66669;SDS011;53568;52.164;4.472;2023-09-19T06:18:17;6.69;;;4.61;;
66669;SDS011;53568;52.164;4.472;2023-09-19T06:20:48;6.75;;;4.58;;
66669;SDS011;53568;52.164;4.472;2023-09-19T06:23:16;7.16;;;4.86;;
66669;SDS011;53568;52.164;4.472;2023-09-19T06:25:42;7.36;;;5.04;;
66669;SDS011;53568;52.164;4.472;2023-09-19T06:28:11;7.54;;;5.20;;
66669;SDS011;53568;52.164;4.472;2023-09-19T06:30:39;7.13;;;4.79;;
66669;SDS011;53568;52.164;4.472;2023-09-19T06:33:05;6.57;;;4.46;;
66669;SDS011;53568;52.164;4.472;2023-09-19T06:35:32;6.07;;;4.14;;
66669;SDS011;53568;52.164;4.472;2023-09-19T06:38:01;6.92;;;4.68;;
66669;SDS011;53568;52.164;4.472;2023-09-19T06:40:28;7.31;;;4.85;;
66669;SDS011;53568;52.164;4.472;2023-09-19T06:42:53;7.87;;;5.11;;
66669;SDS011;53568;52.164;4.472;2023-09-19T06:45:21;7.53;;;4.93;;
66669;SDS011;53568;52.164;4.472;2023-09-19T06:47:51;7.31;;;4.85;;
66669;SDS011;53568;52.164;4.472;2023-09-19T06:50:17;7.34;;;4.89;;
66669;SDS011;53568;52.164;4.472;2023-09-19T06:52:45;6.54;;;4.45;;
66669;SDS011;53568;52.164;4.472;2023-09-19T06:55:16;6.59;;;4.45;;
66669;SDS011;53568;52.164;4.472;2023-09-19T06:57:48;6.89;;;4.70;;
66669;SDS011;53568;52.164;4.472;2023-09-19T07:00:14;6.87;;;4.71;;
66669;SDS011;53568;52.164;4.472;2023-09-19T07:02:41;6.35;;;4.40;;
66669;SDS011;53568;52.164;4.472;2023-09-19T07:05:07;6.58;;;4.48;;
66669;SDS011;53568;52.164;4.472;2023-09-19T07:07:33;6.56;;;4.51;;
66669;SDS011;53568;52.164;4.472;2023-09-19T07:10:00;6.69;;;4.59;;
66669;SDS011;53568;52.164;4.472;2023-09-19T07:12:27;7.07;;;4.90;;
66669;SDS011;53568;52.164;4.472;2023-09-19T07:14:52;6.62;;;4.62;;
66669;SDS011;53568;52.164;4.472;2023-09-19T07:17:18;5.96;;;4.18;;
66669;SDS011;53568;52.164;4.472;2023-09-19T07:19:44;6.60;;;4.62;;
66669;SDS011;53568;52.164;4.472;2023-09-19T07:22:10;6.85;;;4.80;;
66669;SDS011;53568;52.164;4.472;2023-09-19T07:24:36;7.89;;;5.41;;
66669;SDS011;53568;52.164;4.472;2023-09-19T07:27:03;7.50;;;5.15;;
66669;SDS011;53568;52.164;4.472;2023-09-19T07:29:30;7.05;;;4.86;;
66669;SDS011;53568;52.164;4.472;2023-09-19T07:31:56;6.07;;;4.22;;
66669;SDS011;53568;52.164;4.472;2023-09-19T07:34:21;7.02;;;4.82;;
66669;SDS011;53568;52.164;4.472;2023-09-19T07:36:48;6.88;;;4.88;;
66669;SDS011;53568;52.164;4.472;2023-09-19T07:39:13;6.38;;;4.62;;
66669;SDS011;53568;52.164;4.472;2023-09-19T07:41:39;6.69;;;4.95;;
66669;SDS011;53568;52.164;4.472;2023-09-19T07:44:04;6.18;;;4.52;;
66669;SDS011;53568;52.164;4.472;2023-09-19T07:46:30;7.18;;;5.07;;
66669;SDS011;53568;52.164;4.472;2023-09-19T07:48:56;7.40;;;5.14;;
66669;SDS011;53568;52.164;4.472;2023-09-19T07:51:22;7.76;;;5.33;;
66669;SDS011;53568;52.164;4.472;2023-09-19T07:53:48;6.94;;;4.99;;
66669;SDS011;53568;52.164;4.472;2023-09-19T07:56:13;6.57;;;4.77;;
66669;SDS011;53568;52.164;4.472;2023-09-19T07:58:40;7.33;;;5.21;;
66669;SDS011;53568;52.164;4.472;2023-09-19T08:01:08;7.38;;;5.29;;
66669;SDS011;53568;52.164;4.472;2023-09-19T08:03:35;7.54;;;5.56;;
66669;SDS011;53568;52.164;4.472;2023-09-19T08:06:06;7.76;;;5.60;;
66669;SDS011;53568;52.164;4.472;2023-09-19T08:08:32;7.46;;;5.26;;
66669;SDS011;53568;52.164;4.472;2023-09-19T08:11:03;8.16;;;5.87;;
66669;SDS011;53568;52.164;4.472;2023-09-19T08:13:36;7.12;;;5.11;;
66669;SDS011;53568;52.164;4.472;2023-09-19T08:16:06;7.94;;;5.59;;
66669;SDS011;53568;52.164;4.472;2023-09-19T08:18:32;7.96;;;5.59;;
66669;SDS011;53568;52.164;4.472;2023-09-19T08:20:58;8.22;;;5.71;;
66669;SDS011;53568;52.164;4.472;2023-09-19T08:23:25;8.20;;;5.69;;
66669;SDS011;53568;52.164;4.472;2023-09-19T08:25:55;7.53;;;5.27;;
66669;SDS011;53568;52.164;4.472;2023-09-19T08:28:22;8.42;;;5.69;;
66669;SDS011;53568;52.164;4.472;2023-09-19T08:30:49;7.89;;;5.46;;
66669;SDS011;53568;52.164;4.472;2023-09-19T08:33:15;7.58;;;5.26;;
66669;SDS011;53568;52.164;4.472;2023-09-19T08:35:41;8.02;;;5.47;;
66669;SDS011;53568;52.164;4.472;2023-09-19T08:38:08;7.93;;;5.41;;
66669;SDS011;53568;52.164;4.472;2023-09-19T08:40:37;7.24;;;5.07;;
66669;SDS011;53568;52.164;4.472;2023-09-19T08:43:05;7.14;;;5.12;;
66669;SDS011;53568;52.164;4.472;2023-09-19T08:45:33;7.63;;;5.45;;
66669;SDS011;53568;52.164;4.472;2023-09-19T08:48:16;7.53;;;5.56;;
66669;SDS011;53568;52.164;4.472;2023-09-19T08:51:19;7.08;;;5.18;;
66669;SDS011;53568;52.164;4.472;2023-09-19T08:53:51;6.69;;;4.85;;
66669;SDS011;53568;52.164;4.472;2023-09-19T08:56:24;6.75;;;4.89;;
66669;SDS011;53568;52.164;4.472;2023-09-19T08:58:59;8.11;;;5.88;;
66669;SDS011;53568;52.164;4.472;2023-09-19T09:01:28;6.69;;;5.29;;
66669;SDS011;53568;52.164;4.472;2023-09-19T09:03:55;5.65;;;4.72;;
66669;SDS011;53568;52.164;4.472;2023-09-19T09:06:22;6.16;;;5.18;;
66669;SDS011;53568;52.164;4.472;2023-09-19T09:08:52;5.88;;;4.79;;
66669;SDS011;53568;52.164;4.472;2023-09-19T09:11:18;5.67;;;4.57;;
66669;SDS011;53568;52.164;4.472;2023-09-19T09:13:45;6.80;;;5.26;;
66669;SDS011;53568;52.164;4.472;2023-09-19T09:16:11;6.40;;;4.81;;
66669;SDS011;53568;52.164;4.472;2023-09-19T09:18:38;7.02;;;5.26;;
66669;SDS011;53568;52.164;4.472;2023-09-19T09:21:06;7.82;;;5.72;;
66669;SDS011;53568;52.164;4.472;2023-09-19T09:23:31;7.53;;;5.40;;
66669;SDS011;53568;52.164;4.472;2023-09-19T09:25:58;8.40;;;5.96;;
66669;SDS011;53568;52.164;4.472;2023-09-19T09:28:28;7.73;;;5.61;;
66669;SDS011;53568;52.164;4.472;2023-09-19T09:30:56;6.94;;;5.19;;
66669;SDS011;53568;52.164;4.472;2023-09-19T09:33:25;6.95;;;5.14;;
66669;SDS011;53568;52.164;4.472;2023-09-19T09:35:55;7.70;;;5.57;;
66669;SDS011;53568;52.164;4.472;2023-09-19T09:38:24;7.35;;;5.36;;
66669;SDS011;53568;52.164;4.472;2023-09-19T09:40:53;7.51;;;5.34;;
66669;SDS011;53568;52.164;4.472;2023-09-19T09:43:32;6.76;;;4.87;;
66669;SDS011;53568;52.164;4.472;2023-09-19T09:46:10;7.19;;;5.13;;
66669;SDS011;53568;52.164;4.472;2023-09-19T09:49:07;7.26;;;5.13;;
66669;SDS011;53568;52.164;4.472;2023-09-19T09:51:51;7.48;;;5.15;;
66669;SDS011;53568;52.164;4.472;2023-09-19T09:54:26;6.37;;;4.51;;
66669;SDS011;53568;52.164;4.472;2023-09-19T09:57:03;6.96;;;4.87;;
66669;SDS011;53568;52.164;4.472;2023-09-19T09:59:52;7.60;;;5.21;;
66669;SDS011;53568;52.164;4.472;2023-09-19T10:02:21;7.39;;;4.97;;
66669;SDS011;53568;52.164;4.472;2023-09-19T10:05:14;8.08;;;5.43;;
66669;SDS011;53568;52.164;4.472;2023-09-19T10:07:44;7.13;;;4.78;;
66669;SDS011;53568;52.164;4.472;2023-09-19T10:10:37;7.21;;;4.98;;
66669;SDS011;53568;52.164;4.472;2023-09-19T10:13:19;6.73;;;4.61;;
66669;SDS011;53568;52.164;4.472;2023-09-19T10:15:52;5.94;;;4.14;;
66669;SDS011;53568;52.164;4.472;2023-09-19T10:18:23;6.91;;;4.69;;
66669;SDS011;53568;52.164;4.472;2023-09-19T10:20:52;6.41;;;4.31;;
66669;SDS011;53568;52.164;4.472;2023-09-19T10:23:18;5.86;;;4.03;;
66669;SDS011;53568;52.164;4.472;2023-09-19T10:25:49;5.24;;;3.69;;
66669;SDS011;53568;52.164;4.472;2023-09-19T10:28:16;5.57;;;3.90;;
66669;SDS011;53568;52.164;4.472;2023-09-19T10:30:53;5.32;;;3.74;;
66669;SDS011;53568;52.164;4.472;2023-09-19T10:33:20;5.81;;;4.07;;
66669;SDS011;53568;52.164;4.472;2023-09-19T10:35:48;5.62;;;3.94;;
66669;SDS011;53568;52.164;4.472;2023-09-19T10:38:19;5.60;;;3.97;;
66669;SDS011;53568;52.164;4.472;2023-09-19T10:40:49;5.39;;;3.81;;
66669;SDS011;53568;52.164;4.472;2023-09-19T10:43:17;5.48;;;3.88;;
66669;SDS011;53568;52.164;4.472;2023-09-19T10:45:51;5.10;;;3.75;;
66669;SDS011;53568;52.164;4.472;2023-09-19T10:48:20;4.36;;;3.35;;
66669;SDS011;53568;52.164;4.472;2023-09-19T10:51:05;5.04;;;3.81;;
66669;SDS011;53568;52.164;4.472;2023-09-19T10:53:48;4.88;;;3.70;;
66669;SDS011;53568;52.164;4.472;2023-09-19T10:56:18;4.61;;;3.52;;
66669;SDS011;53568;52.164;4.472;2023-09-19T10:58:49;5.05;;;3.74;;
66669;SDS011;53568;52.164;4.472;2023-09-19T11:01:16;5.46;;;3.94;;
66669;SDS011;53568;52.164;4.472;2023-09-19T11:03:42;4.89;;;3.47;;
66669;SDS011;53568;52.164;4.472;2023-09-19T11:06:13;4.80;;;3.46;;
66669;SDS011;53568;52.164;4.472;2023-09-19T11:14:14;4.73;;;3.54;;
66669;SDS011;53568;52.164;4.472;2023-09-19T11:30:39;3.57;;;2.87;;
66669;SDS011;53568;52.164;4.472;2023-09-19T11:33:18;3.84;;;3.08;;
66669;SDS011;53568;52.164;4.472;2023-09-19T11:43:50;4.10;;;3.30;;
66669;SDS011;53568;52.164;4.472;2023-09-19T11:46:32;4.39;;;3.54;;
66669;SDS011;53568;52.164;4.472;2023-09-19T11:49:05;3.56;;;2.92;;
66669;SDS011;53568;52.164;4.472;2023-09-19T11:51:41;4.94;;;4.25;;
66669;SDS011;53568;52.164;4.472;2023-09-19T11:54:13;4.08;;;3.51;;
66669;SDS011;53568;52.164;4.472;2023-09-19T11:56:53;7.30;;;6.88;;
66669;SDS011;53568;52.164;4.472;2023-09-19T11:59:20;2.76;;;2.57;;
66669;SDS011;53568;52.164;4.472;2023-09-19T12:01:51;2.58;;;2.34;;
66669;SDS011;53568;52.164;4.472;2023-09-19T12:04:33;3.01;;;2.69;;
66669;SDS011;53568;52.164;4.472;2023-09-19T12:07:07;2.94;;;2.59;;
66669;SDS011;53568;52.164;4.472;2023-09-19T12:09:40;3.35;;;2.87;;
66669;SDS011;53568;52.164;4.472;2023-09-19T12:12:25;3.40;;;2.89;;
66669;SDS011;53568;52.164;4.472;2023-09-19T12:14:52;3.33;;;2.85;;
66669;SDS011;53568;52.164;4.472;2023-09-19T12:17:19;3.52;;;2.98;;
66669;SDS011;53568;52.164;4.472;2023-09-19T12:19:51;3.71;;;3.18;;
66669;SDS011;53568;52.164;4.472;2023-09-19T12:22:18;3.60;;;3.04;;
66669;SDS011;53568;52.164;4.472;2023-09-19T12:24:45;3.49;;;3.00;;
66669;SDS011;53568;52.164;4.472;2023-09-19T12:27:12;3.80;;;3.27;;
66669;SDS011;53568;52.164;4.472;2023-09-19T12:29:45;3.82;;;3.30;;
66669;SDS011;53568;52.164;4.472;2023-09-19T12:32:16;5.98;;;5.47;;
66669;SDS011;53568;52.164;4.472;2023-09-19T12:34:50;4.70;;;4.46;;
66669;SDS011;53568;52.164;4.472;2023-09-19T12:37:17;3.53;;;3.30;;
66669;SDS011;53568;52.164;4.472;2023-09-19T12:39:48;3.27;;;3.04;;
66669;SDS011;53568;52.164;4.472;2023-09-19T12:42:17;3.86;;;3.56;;
66669;SDS011;53568;52.164;4.472;2023-09-19T12:44:45;3.78;;;3.38;;
66669;SDS011;53568;52.164;4.472;2023-09-19T12:47:14;3.89;;;3.39;;
66669;SDS011;53568;52.164;4.472;2023-09-19T12:52:52;3.91;;;3.36;;
66669;SDS011;53568;52.164;4.472;2023-09-19T12:57:59;4.06;;;3.39;;
66669;SDS011;53568;52.164;4.472;2023-09-19T13:00:40;4.13;;;3.44;;
66669;SDS011;53568;52.164;4.472;2023-09-19T13:03:14;4.37;;;3.70;;
66669;SDS011;53568;52.164;4.472;2023-09-19T13:05:50;3.55;;;3.07;;
66669;SDS011;53568;52.164;4.472;2023-09-19T13:11:07;4.46;;;3.66;;
66669;SDS011;53568;52.164;4.472;2023-09-19T13:13:44;4.60;;;3.94;;
66669;SDS011;53568;52.164;4.472;2023-09-19T13:16:19;3.82;;;3.25;;
66669;SDS011;53568;52.164;4.472;2023-09-19T13:18:49;3.94;;;3.34;;
66669;SDS011;53568;52.164;4.472;2023-09-19T13:21:28;4.14;;;3.48;;
66669;SDS011;53568;52.164;4.472;2023-09-19T13:24:18;3.71;;;3.07;;
66669;SDS011;53568;52.164;4.472;2023-09-19T13:26:52;3.69;;;3.06;;
66669;SDS011;53568;52.164;4.472;2023-09-19T13:29:18;4.42;;;3.56;;
66669;SDS011;53568;52.164;4.472;2023-09-19T13:31:47;4.25;;;3.45;;
66669;SDS011;53568;52.164;4.472;2023-09-19T13:34:14;4.00;;;3.34;;
66669;SDS011;53568;52.164;4.472;2023-09-19T13:36:43;4.40;;;3.59;;
66669;SDS011;53568;52.164;4.472;2023-09-19T13:39:09;4.58;;;3.68;;
66669;SDS011;53568;52.164;4.472;2023-09-19T13:41:35;4.61;;;3.79;;
66669;SDS011;53568;52.164;4.472;2023-09-19T13:44:04;4.86;;;4.02;;
66669;SDS011;53568;52.164;4.472;2023-09-19T13:46:30;5.25;;;4.45;;
66669;SDS011;53568;52.164;4.472;2023-09-19T13:49:00;5.04;;;4.26;;
66669;SDS011;53568;52.164;4.472;2023-09-19T13:51:28;5.18;;;4.45;;
66669;SDS011;53568;52.164;4.472;2023-09-19T13:53:55;5.38;;;4.82;;
66669;SDS011;53568;52.164;4.472;2023-09-19T13:56:21;5.37;;;4.71;;
66669;SDS011;53568;52.164;4.472;2023-09-19T13:58:47;4.69;;;4.05;;
66669;SDS011;53568;52.164;4.472;2023-09-19T14:01:13;4.89;;;4.23;;
66669;SDS011;53568;52.164;4.472;2023-09-19T14:03:39;5.03;;;4.37;;
66669;SDS011;53568;52.164;4.472;2023-09-19T14:06:05;5.91;;;5.11;;
66669;SDS011;53568;52.164;4.472;2023-09-19T14:08:31;6.31;;;5.26;;
66669;SDS011;53568;52.164;4.472;2023-09-19T14:10:58;6.66;;;5.37;;
66669;SDS011;53568;52.164;4.472;2023-09-19T14:13:24;6.41;;;5.37;;
66669;SDS011;53568;52.164;4.472;2023-09-19T14:15:50;6.12;;;5.22;;
66669;SDS011;53568;52.164;4.472;2023-09-19T14:18:16;6.59;;;5.66;;
66669;SDS011;53568;52.164;4.472;2023-09-19T14:20:43;6.75;;;5.54;;
66669;SDS011;53568;52.164;4.472;2023-09-19T14:23:09;6.04;;;4.98;;
66669;SDS011;53568;52.164;4.472;2023-09-19T14:25:35;6.09;;;5.04;;
66669;SDS011;53568;52.164;4.472;2023-09-19T14:28:01;6.91;;;5.69;;
66669;SDS011;53568;52.164;4.472;2023-09-19T14:30:27;5.97;;;4.94;;
66669;SDS011;53568;52.164;4.472;2023-09-19T14:32:53;5.60;;;4.58;;
66669;SDS011;53568;52.164;4.472;2023-09-19T14:35:19;5.74;;;4.72;;
66669;SDS011;53568;52.164;4.472;2023-09-19T14:37:44;5.64;;;4.62;;
66669;SDS011;53568;52.164;4.472;2023-09-19T14:40:11;5.30;;;4.21;;
66669;SDS011;53568;52.164;4.472;2023-09-19T14:42:38;5.94;;;4.72;;
66669;SDS011;53568;52.164;4.472;2023-09-19T14:45:05;5.85;;;4.59;;
66669;SDS011;53568;52.164;4.472;2023-09-19T14:47:31;6.58;;;5.07;;
66669;SDS011;53568;52.164;4.472;2023-09-19T14:50:00;6.02;;;4.66;;
66669;SDS011;53568;52.164;4.472;2023-09-19T14:52:26;5.90;;;4.74;;
66669;SDS011;53568;52.164;4.472;2023-09-19T14:54:53;5.32;;;4.30;;
66669;SDS011;53568;52.164;4.472;2023-09-19T14:57:19;5.85;;;4.85;;
66669;SDS011;53568;52.164;4.472;2023-09-19T14:59:45;5.90;;;4.92;;
66669;SDS011;53568;52.164;4.472;2023-09-19T15:02:11;6.68;;;5.33;;
66669;SDS011;53568;52.164;4.472;2023-09-19T15:04:36;7.07;;;5.62;;
66669;SDS011;53568;52.164;4.472;2023-09-19T15:07:05;7.16;;;5.69;;
66669;SDS011;53568;52.164;4.472;2023-09-19T15:09:31;6.57;;;5.32;;
66669;SDS011;53568;52.164;4.472;2023-09-19T15:11:58;6.54;;;5.43;;
66669;SDS011;53568;52.164;4.472;2023-09-19T15:14:24;5.76;;;4.98;;
66669;SDS011;53568;52.164;4.472;2023-09-19T15:16:50;5.13;;;4.57;;
66669;SDS011;53568;52.164;4.472;2023-09-19T15:19:15;4.99;;;4.46;;
66669;SDS011;53568;52.164;4.472;2023-09-19T15:21:42;5.27;;;4.70;;
66669;SDS011;53568;52.164;4.472;2023-09-19T15:24:09;5.20;;;4.52;;
66669;SDS011;53568;52.164;4.472;2023-09-19T15:26:35;5.61;;;4.81;;
66669;SDS011;53568;52.164;4.472;2023-09-19T15:29:07;6.38;;;5.32;;
66669;SDS011;53568;52.164;4.472;2023-09-19T15:31:34;6.47;;;5.35;;
66669;SDS011;53568;52.164;4.472;2023-09-19T15:34:04;6.26;;;5.31;;
66669;SDS011;53568;52.164;4.472;2023-09-19T15:36:30;6.16;;;5.36;;
66669;SDS011;53568;52.164;4.472;2023-09-19T15:39:03;6.72;;;5.75;;
66669;SDS011;53568;52.164;4.472;2023-09-19T15:41:32;6.89;;;5.84;;
66669;SDS011;53568;52.164;4.472;2023-09-19T15:43:59;6.53;;;5.52;;
66669;SDS011;53568;52.164;4.472;2023-09-19T15:46:26;7.07;;;5.91;;
66669;SDS011;53568;52.164;4.472;2023-09-19T15:48:54;6.78;;;5.76;;
66669;SDS011;53568;52.164;4.472;2023-09-19T15:51:21;6.45;;;5.34;;
66669;SDS011;53568;52.164;4.472;2023-09-19T15:53:48;6.25;;;5.12;;
66669;SDS011;53568;52.164;4.472;2023-09-19T15:56:17;5.85;;;5.01;;
66669;SDS011;53568;52.164;4.472;2023-09-19T15:58:44;6.41;;;5.33;;
66669;SDS011;53568;52.164;4.472;2023-09-19T16:01:11;7.41;;;5.95;;
66669;SDS011;53568;52.164;4.472;2023-09-19T16:03:37;7.64;;;6.13;;
66669;SDS011;53568;52.164;4.472;2023-09-19T16:06:10;6.89;;;5.46;;